Time;durP1;ratioP1;P1;durP2;ratioP2;P2;SDS_P1;SDS_P2;PMS_P1;PMS_P2;Temp;Humidity;BMP_temperature;BMP_pressure;BME280_temperature;BME280_humidity;BME280_pressure;Samples;Min_cycle;Max_cycle;Signal;HPM_P1;HPM_P2
2022/06/13 00:03:21;;;;;;;0.00;0.00;;;;;;;10.88;100.00;101844.25;10371028;28;20037;-88
2022/06/13 00:08:22;;;;;;;0.10;0.10;;;;;;;10.93;100.00;101843.81;10370476;28;20084;-88
2022/06/13 00:13:22;;;;;;;0.00;0.00;;;;;;;10.95;100.00;101828.53;10370398;28;20528;-88
2022/06/13 00:18:24;;;;;;;0.00;0.00;;;;;;;11.01;100.00;101832.50;10370291;28;20038;-88
2022/06/13 00:23:24;;;;;;;0.00;0.00;;;;;;;11.02;100.00;101834.16;10383465;28;20069;-88
2022/06/13 00:28:25;;;;;;;0.00;0.00;;;;;;;11.03;100.00;101825.22;10369613;28;20053;-88
2022/06/13 00:33:25;;;;;;;0.00;0.00;;;;;;;10.98;100.00;101812.28;10369637;28;20385;-88
2022/06/13 00:38:25;;;;;;;0.00;0.00;;;;;;;11.00;100.00;101820.16;10370361;28;20116;-88
2022/06/13 00:43:26;;;;;;;0.00;0.00;;;;;;;10.96;100.00;101827.56;10369506;28;20030;-88
2022/06/13 00:48:28;;;;;;;0.00;0.00;;;;;;;10.91;100.00;101821.81;10369077;28;20033;-88
2022/06/13 00:53:32;;;;;;;0.10;0.10;;;;;;;10.91;100.00;101828.94;10391812;28;20021;-88
2022/06/13 00:58:41;;;;;;;0.10;0.10;;;;;;;10.87;100.00;101821.22;10392837;28;20489;-89
2022/06/13 01:03:44;;;;;;;0.10;0.10;;;;;;;10.86;100.00;101829.38;10368118;28;20030;-88
2022/06/13 01:08:45;;;;;;;0.10;0.10;;;;;;;10.84;100.00;101824.16;10368900;28;20057;-88
2022/06/13 01:14:03;;;;;;;0.10;0.10;;;;;;;10.87;100.00;101823.88;10368240;28;20293;-88
2022/06/13 01:19:13;;;;;;;0.10;0.10;;;;;;;10.87;100.00;101817.72;10369064;28;20037;-87
2022/06/13 01:24:40;;;;;;;0.00;0.00;;;;;;;10.87;100.00;101813.22;10375663;28;20800;-88
2022/06/13 01:29:41;;;;;;;0.10;0.10;;;;;;;10.85;100.00;101804.56;10370590;28;20067;-88
2022/06/13 01:34:51;;;;;;;0.05;0.05;;;;;;;10.80;100.00;101805.94;10367734;28;20061;-87
2022/06/13 01:40:10;;;;;;;0.00;0.00;;;;;;;10.71;100.00;101796.94;10368708;28;20037;-87
2022/06/13 01:45:33;;;;;;;0.00;0.00;;;;;;;10.65;100.00;101792.16;10372814;28;20044;-87
2022/06/13 01:51:04;;;;;;;0.00;0.00;;;;;;;10.60;100.00;101776.56;10374657;28;20064;-88
2022/06/13 01:56:17;;;;;;;0.10;0.10;;;;;;;10.65;100.00;101784.16;10377953;28;20033;-87
2022/06/13 02:01:39;;;;;;;0.00;0.00;;;;;;;10.71;100.00;101796.09;10377572;28;20447;-88
2022/06/13 02:07:06;;;;;;;0.00;0.00;;;;;;;10.80;100.00;101789.94;10374862;28;20068;-88
2022/06/13 02:12:07;;;;;;;0.00;0.00;;;;;;;10.86;100.00;101786.72;10375886;28;20038;-88
2022/06/13 02:17:13;;;;;;;0.10;0.10;;;;;;;10.95;100.00;101779.72;10373200;28;20030;-89
2022/06/13 02:22:26;;;;;;;0.00;0.00;;;;;;;11.04;100.00;101784.22;10391081;28;20095;-89
2022/06/13 02:27:31;;;;;;;0.00;0.00;;;;;;;11.11;100.00;101777.34;10374022;28;20033;-90
2022/06/13 02:32:39;;;;;;;0.05;0.05;;;;;;;11.15;100.00;101773.44;10374731;28;20041;-89
2022/06/13 02:37:50;;;;;;;0.00;0.00;;;;;;;11.17;100.00;101782.16;10374097;28;20034;-89
2022/06/13 02:43:00;;;;;;;0.10;0.10;;;;;;;11.20;100.00;101779.19;10374470;28;20033;-89
2022/06/13 02:48:17;;;;;;;0.10;0.10;;;;;;;11.24;100.00;101769.09;10374348;28;20060;-90
2022/06/13 02:53:45;;;;;;;0.08;0.08;;;;;;;11.27;100.00;101774.97;10382895;28;20038;-87
2022/06/13 02:59:10;;;;;;;0.10;0.10;;;;;;;11.28;100.00;101770.47;10374818;28;20034;-90
2022/06/13 03:04:31;;;;;;;0.00;0.00;;;;;;;11.28;100.00;101755.31;10374427;28;20056;-90
2022/06/13 03:09:48;;;;;;;0.10;0.10;;;;;;;11.28;100.00;101749.97;10375491;28;20034;-90
2022/06/13 03:15:03;;;;;;;0.10;0.10;;;;;;;11.31;100.00;101743.50;10377567;28;20107;-90
2022/06/13 03:20:14;;;;;;;0.10;0.10;;;;;;;11.38;100.00;101738.47;10377903;28;20040;-90
2022/06/13 03:25:17;;;;;;;0.00;0.00;;;;;;;11.44;100.00;101748.56;10375182;28;20041;-90
2022/06/13 03:30:20;;;;;;;0.10;0.10;;;;;;;11.49;100.00;101757.84;10375079;28;20038;-90
2022/06/13 03:35:21;;;;;;;0.00;0.00;;;;;;;11.49;100.00;101752.50;10374699;28;20056;-90
2022/06/13 03:40:25;;;;;;;0.10;0.10;;;;;;;11.48;100.00;101747.28;10376108;28;20034;-91
2022/06/13 03:45:33;;;;;;;0.00;0.00;;;;;;;11.52;100.00;101767.38;10372849;28;20052;-90
2022/06/13 03:50:41;;;;;;;0.08;0.08;;;;;;;11.49;100.00;101764.97;10373836;28;20038;-90
2022/06/13 03:55:52;;;;;;;0.10;0.10;;;;;;;11.49;100.00;101763.19;10372826;28;20468;-91
2022/06/13 04:01:02;;;;;;;0.10;0.10;;;;;;;11.50;100.00;101766.69;10371303;28;20207;-90
2022/06/13 04:06:24;;;;;;;0.08;0.08;;;;;;;11.63;100.00;101753.88;10373197;28;20038;-90
2022/06/13 04:11:37;;;;;;;0.00;0.00;;;;;;;12.65;100.00;101753.94;10392573;23;20165;-89
2022/06/13 04:16:52;;;;;;;0.10;0.10;;;;;;;14.58;100.00;101762.91;10392634;28;20022;-90
2022/06/13 04:22:00;;;;;;;0.10;0.10;;;;;;;15.14;100.00;101772.06;10368892;28;20040;-89
2022/06/13 04:27:15;;;;;;;0.10;0.10;;;;;;;14.24;100.00;101761.06;10377237;28;20116;-89
2022/06/13 04:32:20;;;;;;;0.10;0.10;;;;;;;13.66;100.00;101772.44;10367234;28;20029;-89
2022/06/13 04:37:22;;;;;;;0.10;0.10;;;;;;;13.25;100.00;101763.22;10372346;28;20149;-90
2022/06/13 04:42:24;;;;;;;0.10;0.10;;;;;;;12.97;100.00;101762.44;10370931;28;20038;-89
2022/06/13 04:47:24;;;;;;;0.10;0.10;;;;;;;12.95;100.00;101764.44;10371288;28;20030;-90
2022/06/13 04:52:32;;;;;;;0.05;0.05;;;;;;;12.99;100.00;101766.63;10371891;28;20490;-90
2022/06/13 04:57:33;;;;;;;0.10;0.10;;;;;;;13.27;100.00;101764.78;10372546;28;20057;-90
2022/06/13 05:02:42;;;;;;;0.10;0.10;;;;;;;14.66;100.00;101773.66;10369588;28;20405;-89
2022/06/13 05:07:42;;;;;;;0.10;0.10;;;;;;;17.09;100.00;101770.91;10372588;28;20065;-89
2022/06/13 05:12:44;;;;;;;0.10;0.10;;;;;;;17.58;100.00;101763.25;10372664;28;20057;-91
2022/06/13 05:18:07;;;;;;;0.10;0.10;;;;;;;17.04;100.00;101768.72;10371317;28;20080;-90
2022/06/13 05:23:34;;;;;;;0.10;0.10;;;;;;;16.48;100.00;101757.25;10383502;28;20521;-89
2022/06/13 05:28:36;;;;;;;0.10;0.10;;;;;;;16.16;100.00;101761.75;10379115;28;20038;-89
2022/06/13 05:33:40;;;;;;;0.10;0.10;;;;;;;16.59;100.00;101754.19;10377427;28;20050;-89
2022/06/13 05:38:46;;;;;;;0.00;0.00;;;;;;;16.85;100.00;101763.84;10387152;28;20050;-89
2022/06/13 05:43:47;;;;;;;0.10;0.10;;;;;;;16.81;100.00;101755.25;10378969;28;20053;-89
2022/06/13 05:48:49;;;;;;;0.10;0.10;;;;;;;16.67;100.00;101754.16;10378526;28;20037;-91
2022/06/13 05:53:49;;;;;;;0.00;0.00;;;;;;;16.67;100.00;101769.47;10377723;28;20063;-91
2022/06/13 05:58:50;;;;;;;0.10;0.10;;;;;;;16.79;100.00;101781.53;10379885;28;20057;-90
2022/06/13 06:03:51;;;;;;;0.20;0.20;;;;;;;16.92;100.00;101770.16;10378470;28;20030;-89
2022/06/13 06:08:54;;;;;;;0.10;0.10;;;;;;;16.92;100.00;101786.31;10378229;28;20175;-89
2022/06/13 06:13:55;;;;;;;0.10;0.10;;;;;;;16.56;100.00;101776.06;10374715;28;20117;-90
2022/06/13 06:18:56;;;;;;;0.10;0.10;;;;;;;16.36;100.00;101790.94;10375085;28;20113;-90
2022/06/13 06:23:56;;;;;;;0.10;0.10;;;;;;;16.06;100.00;101796.06;10380487;28;20459;-89
2022/06/13 06:28:56;;;;;;;0.10;0.10;;;;;;;15.60;100.00;101785.84;10376511;28;20029;-89
2022/06/13 06:33:57;;;;;;;0.10;0.10;;;;;;;15.28;100.00;101792.06;10376465;28;20268;-89
2022/06/13 06:38:57;;;;;;;0.10;0.10;;;;;;;14.91;100.00;101801.38;10375093;28;20513;-89
2022/06/13 06:43:57;;;;;;;0.10;0.10;;;;;;;14.57;100.00;101801.44;10373336;28;20033;-90
2022/06/13 06:48:58;;;;;;;0.10;0.10;;;;;;;14.27;100.00;101803.59;10374655;28;20036;-89
2022/06/13 07:04:36;;;;;;;0.10;0.10;;;;;;;13.17;100.00;101819.31;10373662;28;20029;-90
2022/06/13 07:09:36;;;;;;;0.10;0.10;;;;;;;12.93;100.00;101810.03;10374302;28;20038;-90
2022/06/13 07:14:36;;;;;;;0.10;0.10;;;;;;;12.84;100.00;101818.97;10374609;28;20563;-90
2022/06/13 07:19:37;;;;;;;0.00;0.00;;;;;;;13.11;100.00;101826.94;10374552;28;20501;-90
2022/06/13 07:24:38;;;;;;;0.10;0.10;;;;;;;13.63;100.00;101814.75;10374746;28;20289;-89
2022/06/13 07:29:38;;;;;;;0.10;0.10;;;;;;;13.78;100.00;101819.38;10372756;28;20132;-90
2022/06/13 07:34:40;;;;;;;0.10;0.10;;;;;;;13.55;100.00;101821.69;10373915;28;20273;-90
2022/06/13 07:39:41;;;;;;;0.08;0.08;;;;;;;13.30;100.00;101823.31;10371192;28;20550;-89
2022/06/13 07:44:41;;;;;;;0.10;0.10;;;;;;;13.10;100.00;101857.38;10372748;28;20034;-89
2022/06/13 07:49:41;;;;;;;0.10;0.10;;;;;;;12.36;100.00;101854.75;10374317;28;20532;-89
2022/06/13 07:54:42;;;;;;;0.10;0.10;;;;;;;11.70;100.00;101859.06;10374300;28;20026;-89
2022/06/13 07:59:42;;;;;;;0.10;0.10;;;;;;;11.21;100.00;101839.53;10371881;28;20048;-89
2022/06/13 08:04:43;;;;;;;0.10;0.10;;;;;;;11.45;100.00;101846.28;10372713;28;20045;-88
2022/06/13 08:09:43;;;;;;;0.10;0.10;;;;;;;12.67;100.00;101839.31;10371204;28;20033;-90
2022/06/13 08:14:47;;;;;;;0.10;0.10;;;;;;;13.43;100.00;101833.63;10372448;28;20517;-89
2022/06/13 08:19:47;;;;;;;0.10;0.10;;;;;;;14.64;100.00;101852.59;10372551;28;20088;-89
2022/06/13 08:24:48;;;;;;;0.10;0.10;;;;;;;16.42;100.00;101855.59;10372591;28;20454;-90
2022/06/13 08:29:51;;;;;;;0.10;0.10;;;;;;;17.04;100.00;101859.41;10376780;28;20030;-90
2022/06/13 08:34:51;;;;;;;0.00;0.00;;;;;;;17.68;100.00;101875.31;10372266;28;20634;-90
2022/06/13 08:39:52;;;;;;;0.10;0.10;;;;;;;18.17;100.00;101877.63;10372694;28;20034;-91
2022/06/13 08:45:10;;;;;;;0.10;0.10;;;;;;;18.82;100.00;101868.81;10370544;28;20414;-89
2022/06/13 08:50:34;;;;;;;0.00;0.00;;;;;;;18.23;100.00;101858.81;10371034;28;20030;-90
2022/06/13 08:55:45;;;;;;;0.10;0.10;;;;;;;17.78;100.00;101849.00;10368780;28;20032;-89
2022/06/13 09:00:57;;;;;;;0.00;0.00;;;;;;;18.33;100.00;101845.94;10369954;28;20029;-89
2022/06/13 09:06:14;;;;;;;0.10;0.10;;;;;;;19.47;100.00;101867.06;10371323;28;20033;-90
2022/06/13 09:12:00;;;;;;;0.10;0.10;;;;;;;19.65;89.08;101859.34;10368552;28;20113;-89
2022/06/13 09:17:20;;;;;;;0.03;0.03;;;;;;;19.91;92.91;101860.63;10304701;28;20114;-90
2022/06/13 09:22:48;;;;;;;0.10;0.10;;;;;;;19.98;85.65;101856.09;10372712;28;20040;-90
2022/06/13 09:28:21;;;;;;;0.10;0.10;;;;;;;19.86;88.25;101869.31;10369025;28;20065;-90
2022/06/13 09:33:29;;;;;;;0.00;0.00;;;;;;;19.83;85.34;101858.88;10348250;28;20037;-89
2022/06/13 09:38:52;;;;;;;0.10;0.10;;;;;;;19.82;83.50;101859.91;10370752;28;20129;-90
2022/06/13 09:44:21;;;;;;;0.00;0.00;;;;;;;20.21;86.83;101861.25;10368463;28;20030;-90
2022/06/13 09:49:58;;;;;;;0.00;0.00;;;;;;;19.52;82.08;101866.47;10369868;28;20034;-90
2022/06/13 09:55:24;;;;;;;0.03;0.03;;;;;;;19.47;85.34;101863.53;10339603;28;20030;-90
2022/06/13 10:00:40;;;;;;;0.00;0.00;;;;;;;19.92;82.66;101862.28;10369447;28;20029;-91
2022/06/13 10:05:55;;;;;;;0.00;0.00;;;;;;;20.20;83.23;101870.41;10373302;28;20399;-91
2022/06/13 10:11:03;;;;;;;0.00;0.00;;;;;;;20.18;78.04;101863.50;10414026;23;20046;-91
2022/06/13 10:16:12;;;;;;;0.03;0.03;;;;;;;20.52;80.62;101857.28;10410081;28;20033;-92
2022/06/13 10:21:18;;;;;;;0.10;0.10;;;;;;;20.62;76.54;101870.47;10403130;28;20037;-92
2022/06/13 10:26:41;;;;;;;0.00;0.00;;;;;;;20.29;72.68;101852.16;10402095;28;20039;-90
2022/06/13 10:32:09;;;;;;;0.10;0.10;;;;;;;20.34;75.33;101860.50;10401631;28;20029;-91
2022/06/13 10:37:22;;;;;;;0.00;0.00;;;;;;;20.09;77.88;101857.41;10399093;28;20057;-92
2022/06/13 10:42:27;;;;;;;0.10;0.10;;;;;;;20.39;73.94;101858.06;10400229;28;20044;-93
2022/06/13 10:47:40;;;;;;;0.00;0.00;;;;;;;19.34;78.12;101875.84;10402657;28;20098;-91
2022/06/13 10:52:47;;;;;;;0.00;0.00;;;;;;;19.09;81.07;101869.16;10399363;28;20489;-91
2022/06/13 10:57:55;;;;;;;0.00;0.00;;;;;;;19.78;80.13;101877.56;10398848;28;20125;-92
2022/06/13 11:03:17;;;;;;;0.00;0.00;;;;;;;19.53;82.19;101868.97;10393876;28;20034;-91
2022/06/13 11:08:17;;;;;;;0.00;0.00;;;;;;;18.43;77.81;101879.88;10395324;28;20037;-90
2022/06/13 11:13:25;;;;;;;0.10;0.10;;;;;;;18.37;85.17;101861.72;10397197;28;20029;-91
2022/06/13 11:24:00;;;;;;;0.00;0.00;;;;;;;18.96;83.96;101872.50;10395073;28;20429;-92
2022/06/13 11:29:03;;;;;;;0.10;0.10;;;;;;;19.21;78.74;101886.53;10398006;28;20025;-91
2022/06/13 11:34:24;;;;;;;0.10;0.10;;;;;;;18.44;79.49;101879.69;10394939;28;20486;-91
2022/06/13 11:39:43;;;;;;;0.10;0.10;;;;;;;18.73;76.35;101886.97;10396129;28;20054;-91
2022/06/13 11:44:48;;;;;;;0.10;0.10;;;;;;;18.84;78.43;101884.81;10393018;28;20029;-92
2022/06/13 11:49:55;;;;;;;0.03;0.03;;;;;;;19.48;82.59;101889.50;10396753;28;20398;-93
2022/06/13 11:54:55;;;;;;;0.10;0.10;;;;;;;19.23;75.40;101887.19;10397782;28;20026;-91
2022/06/13 12:00:03;;;;;;;0.00;0.00;;;;;;;18.75;79.73;101902.97;10395215;28;20577;-92
2022/06/13 12:05:14;;;;;;;0.00;0.00;;;;;;;18.85;77.39;101891.88;10394425;28;20493;-91
2022/06/13 12:10:22;;;;;;;0.00;0.00;;;;;;;18.35;77.71;101904.22;10390083;28;20041;-90
2022/06/13 12:15:33;;;;;;;0.10;0.10;;;;;;;18.66;80.23;101907.59;10395341;28;20083;-91
2022/06/13 12:20:45;;;;;;;0.00;0.00;;;;;;;19.11;76.18;101896.78;10376825;28;20069;-90
2022/06/13 12:26:00;;;;;;;0.03;0.03;;;;;;;19.21;75.78;101918.94;10394266;28;20026;-90
2022/06/13 12:31:23;;;;;;;0.10;0.10;;;;;;;18.66;76.33;101925.66;10387834;28;20122;-90
2022/06/13 12:37:12;;;;;;;0.00;0.00;;;;;;;18.30;79.47;101931.78;10390751;28;20026;-91
2022/06/13 12:42:31;;;;;;;0.10;0.10;;;;;;;18.60;82.53;101931.78;10389765;28;20037;-91
2022/06/13 12:47:50;;;;;;;0.03;0.03;;;;;;;18.07;82.50;101921.84;10394767;28;20040;-90
2022/06/13 12:53:35;;;;;;;0.10;0.10;;;;;;;18.63;84.99;101942.22;10399796;28;20034;-91
2022/06/13 12:58:51;;;;;;;0.10;0.10;;;;;;;18.63;73.98;101942.22;10396769;28;20025;-89
2022/06/13 13:04:00;;;;;;;0.00;0.00;;;;;;;18.60;80.07;101953.38;10393604;28;20033;-91
2022/06/13 13:09:17;;;;;;;0.25;0.10;;;;;;;18.57;81.72;101951.06;10390323;28;20023;-90
2022/06/13 13:14:39;;;;;;;0.10;0.10;;;;;;;18.05;76.46;101942.75;10396538;28;20524;-90
2022/06/13 13:19:52;;;;;;;0.08;0.08;;;;;;;17.84;75.88;101961.47;10392402;28;20034;-91
2022/06/13 13:25:05;;;;;;;0.10;0.10;;;;;;;17.68;80.60;101965.06;10393218;28;20034;-91
2022/06/13 13:30:19;;;;;;;0.00;0.00;;;;;;;17.54;81.33;101950.53;10387546;28;20406;-91
2022/06/13 13:35:49;;;;;;;0.00;0.00;;;;;;;17.44;84.81;101974.13;10387791;28;20037;-91
2022/06/13 13:40:52;;;;;;;0.00;0.00;;;;;;;17.44;87.34;101971.44;10393027;28;20095;-91
2022/06/13 13:46:10;;;;;;;0.00;0.00;;;;;;;18.05;86.12;101960.78;10398736;28;20375;-91
2022/06/13 13:51:16;;;;;;;0.10;0.10;;;;;;;18.12;81.94;101969.00;10400887;28;20445;-90
2022/06/13 13:57:02;;;;;;;0.10;0.10;;;;;;;18.24;83.81;101981.03;10394994;28;20116;-90
2022/06/13 14:02:27;;;;;;;0.10;0.10;;;;;;;17.98;78.80;101981.41;10387606;28;20132;-91
2022/06/13 14:07:53;;;;;;;0.10;0.10;;;;;;;17.90;82.74;101970.69;10392883;28;20122;-92
2022/06/13 14:13:01;;;;;;;0.08;0.08;;;;;;;17.93;79.28;101973.03;10397207;28;20092;-91
2022/06/13 14:18:06;;;;;;;0.00;0.00;;;;;;;17.83;80.26;101962.47;10399686;28;20549;-91
2022/06/13 14:23:08;;;;;;;0.00;0.00;;;;;;;18.07;80.83;101973.06;10399461;28;20052;-90
2022/06/13 14:28:21;;;;;;;0.00;0.00;;;;;;;18.13;78.78;101978.78;10397560;28;20021;-92
2022/06/13 14:38:53;;;;;;;0.00;0.00;;;;;;;17.97;86.34;101988.66;10396549;28;19909;-91
2022/06/13 14:44:14;;;;;;;0.10;0.10;;;;;;;18.17;79.71;101998.94;10396899;28;20033;-90
2022/06/13 14:49:28;;;;;;;0.10;0.10;;;;;;;17.98;80.50;101986.81;10397612;28;20041;-91
2022/06/13 14:55:04;;;;;;;0.00;0.00;;;;;;;17.86;80.12;101981.84;10405695;28;20029;-91
2022/06/13 15:00:07;;;;;;;0.10;0.10;;;;;;;18.05;81.07;101996.69;10412744;28;20033;-91
2022/06/13 15:05:10;;;;;;;0.03;0.03;;;;;;;18.13;79.04;102003.88;10410103;28;20042;-84
2022/06/13 15:10:20;;;;;;;0.10;0.10;;;;;;;17.73;76.04;102003.09;10426381;28;20056;-85
2022/06/13 15:15:26;;;;;;;0.10;0.10;;;;;;;17.25;82.00;101985.31;10424040;28;20409;-86
2022/06/13 15:20:32;;;;;;;0.03;0.03;;;;;;;16.90;88.02;102001.78;10425126;28;20494;-84
2022/06/13 15:25:44;;;;;;;0.00;0.00;;;;;;;17.07;91.65;102010.63;10421989;28;20383;-83
2022/06/13 15:30:46;;;;;;;0.10;0.10;;;;;;;17.46;87.13;102007.13;10429474;28;20036;-84
2022/06/13 15:35:48;;;;;;;0.10;0.10;;;;;;;17.72;86.82;102008.69;10429953;28;20247;-85
2022/06/13 15:41:02;;;;;;;0.10;0.10;;;;;;;17.90;86.23;102011.13;10401083;28;20033;-86
2022/06/13 15:46:04;;;;;;;0.10;0.10;;;;;;;17.68;80.42;102010.03;10386790;28;20387;-85
2022/06/13 15:51:17;;;;;;;0.10;0.10;;;;;;;17.76;76.83;102010.81;10387841;28;20494;-86
2022/06/13 15:56:35;;;;;;;0.10;0.10;;;;;;;17.83;79.66;102011.84;10410258;28;20530;-84
2022/06/13 16:01:44;;;;;;;0.10;0.10;;;;;;;17.57;79.24;102011.25;10423888;28;20101;-84
2022/06/13 16:06:48;;;;;;;0.10;0.10;;;;;;;17.29;79.03;102022.50;10425156;28;20034;-85
2022/06/13 16:11:53;;;;;;;0.03;0.03;;;;;;;17.11;79.95;102038.91;10422903;22;20426;-87
2022/06/13 16:17:01;;;;;;;0.10;0.10;;;;;;;16.89;82.09;102042.31;10373018;28;20166;-87
2022/06/13 16:22:17;;;;;;;0.10;0.10;;;;;;;16.59;83.99;102046.53;10351771;28;20037;-86
2022/06/13 16:27:19;;;;;;;0.10;0.10;;;;;;;16.52;82.28;102049.03;10333471;28;20034;-85
2022/06/13 16:32:21;;;;;;;0.10;0.10;;;;;;;16.63;80.48;102070.22;10333233;28;20030;-85
2022/06/13 16:37:22;;;;;;;0.10;0.10;;;;;;;16.59;80.74;102076.94;10332876;28;20023;-86
2022/06/13 16:42:27;;;;;;;0.10;0.10;;;;;;;16.56;77.88;102068.38;10341562;28;20129;-87
2022/06/13 16:47:31;;;;;;;0.10;0.10;;;;;;;16.43;81.10;102076.94;10372320;28;20048;-87
2022/06/13 16:52:57;;;;;;;0.00;0.00;;;;;;;16.23;78.68;102087.16;10373383;28;20072;-86
2022/06/13 16:57:59;;;;;;;0.10;0.10;;;;;;;16.00;82.01;102082.44;10373262;28;20030;-86
2022/06/13 17:03:07;;;;;;;0.10;0.10;;;;;;;15.87;84.36;102076.69;10372657;28;20120;-86
2022/06/13 17:08:19;;;;;;;0.10;0.10;;;;;;;15.72;82.61;102073.78;10373031;28;20037;-86
2022/06/13 17:13:21;;;;;;;0.10;0.10;;;;;;;15.50;87.56;102085.06;10363918;28;20042;-86
2022/06/13 17:18:26;;;;;;;0.10;0.10;;;;;;;15.39;83.72;102084.34;10374078;28;20038;-86
2022/06/13 17:23:30;;;;;;;0.10;0.10;;;;;;;15.28;87.81;102087.31;10373065;28;20038;-88
2022/06/13 17:33:52;;;;;;;0.10;0.10;;;;;;;15.22;88.42;102093.31;10376590;28;20085;-87
2022/06/13 17:38:52;;;;;;;0.20;0.20;;;;;;;15.28;87.73;102095.38;10382746;28;20069;-87
2022/06/13 17:43:54;;;;;;;0.10;0.10;;;;;;;15.24;86.37;102085.97;10364154;28;20479;-87
2022/06/13 17:48:54;;;;;;;0.10;0.10;;;;;;;15.14;88.27;102104.84;10372859;28;20041;-87
2022/06/13 17:53:57;;;;;;;0.00;0.00;;;;;;;14.96;91.98;102096.00;10371167;28;20049;-86
2022/06/13 17:58:57;;;;;;;0.00;0.00;;;;;;;14.78;92.61;102100.56;10370090;28;20303;-87
2022/06/13 18:03:58;;;;;;;0.20;0.20;;;;;;;14.56;93.99;102107.25;10373814;28;20068;-86
2022/06/13 18:09:01;;;;;;;0.10;0.10;;;;;;;14.37;95.49;102117.13;10372105;28;20080;-86
2022/06/13 18:14:01;;;;;;;0.10;0.10;;;;;;;14.33;96.59;102115.72;10361670;28;20062;-86
2022/06/13 18:19:06;;;;;;;0.10;0.10;;;;;;;14.36;91.35;102119.94;10371599;28;20065;-86
2022/06/13 18:24:08;;;;;;;0.10;0.10;;;;;;;14.28;91.13;102115.31;10373490;28;20062;-87
2022/06/13 18:29:08;;;;;;;0.10;0.10;;;;;;;14.16;90.54;102116.53;10381152;28;20034;-86
2022/06/13 18:34:09;;;;;;;0.10;0.10;;;;;;;14.03;92.57;102128.47;10380665;28;20030;-87
2022/06/13 18:39:10;;;;;;;0.10;0.10;;;;;;;13.83;94.07;102118.84;10378535;28;20377;-86
2022/06/13 18:44:10;;;;;;;0.10;0.10;;;;;;;13.66;93.83;102123.16;10371110;28;20453;-87
2022/06/13 18:49:11;;;;;;;0.10;0.10;;;;;;;13.54;95.77;102119.81;10379263;28;20386;-87
2022/06/13 18:54:40;;;;;;;0.10;0.10;;;;;;;13.39;97.45;102129.31;10378083;28;20022;-86
2022/06/13 19:00:02;;;;;;;0.10;0.10;;;;;;;13.17;99.67;102116.25;10379433;28;20042;-87
2022/06/13 19:05:05;;;;;;;0.10;0.10;;;;;;;12.99;100.00;102124.19;10378147;28;20042;-87
2022/06/13 19:10:56;;;;;;;0.10;0.10;;;;;;;12.93;100.00;102133.63;10377895;28;20042;-87
2022/06/13 19:16:06;;;;;;;0.10;0.10;;;;;;;12.88;100.00;102125.16;10341625;28;20061;-86
2022/06/13 19:21:10;;;;;;;0.10;0.10;;;;;;;12.94;100.00;102129.09;10379385;28;20088;-87
2022/06/13 19:26:22;;;;;;;0.10;0.10;;;;;;;12.94;100.00;102140.63;10377935;28;20092;-86
2022/06/13 19:31:30;;;;;;;0.00;0.00;;;;;;;12.84;100.00;102140.66;10380520;28;20041;-87
2022/06/13 19:36:48;;;;;;;0.10;0.10;;;;;;;12.76;100.00;102151.22;10377186;28;20030;-87
2022/06/13 19:42:06;;;;;;;0.10;0.10;;;;;;;12.60;100.00;102146.44;10368529;28;20113;-87
2022/06/13 19:47:31;;;;;;;0.10;0.10;;;;;;;12.49;100.00;102161.78;10337155;28;20046;-87
2022/06/13 19:58:44;;;;;;;0.10;0.10;;;;;;;12.23;100.00;102176.47;10337641;28;20030;-87
2022/06/13 20:04:44;;;;;;;0.10;0.10;;;;;;;12.03;100.00;102156.03;10336553;28;20045;-86
2022/06/13 20:09:54;;;;;;;0.10;0.10;;;;;;;11.99;100.00;102170.66;10326977;28;20088;-86
2022/06/13 20:15:34;;;;;;;0.10;0.10;;;;;;;12.01;100.00;102187.38;10366523;28;20049;-86
2022/06/13 20:26:41;;;;;;;0.10;0.10;;;;;;;11.86;100.00;102178.03;10377937;28;20517;-86
2022/06/13 20:31:57;;;;;;;0.10;0.10;;;;;;;11.90;100.00;102172.31;10378821;28;20125;-87
2022/06/13 20:37:54;;;;;;;;;;;;;;;;;;;;;
2022/06/13 20:43:52;;;;;;;0.10;0.10;;;;;;;11.96;100.00;102202.97;10374674;28;20032;-86
2022/06/13 20:54:30;;;;;;;0.10;0.10;;;;;;;11.75;100.00;102195.84;10417504;22;20054;-70
2022/06/13 20:59:30;;;;;;;0.10;0.10;;;;;;;11.64;100.00;102201.25;10410197;28;20042;-70
2022/06/13 21:04:33;;;;;;;0.10;0.10;;;;;;;11.52;100.00;102203.16;10408597;28;20413;-70
2022/06/13 21:14:53;;;;;;;0.10;0.10;;;;;;;11.39;100.00;102207.00;10403432;28;20033;-71
2022/06/13 21:19:54;;;;;;;0.00;0.00;;;;;;;11.40;100.00;102206.84;10404126;28;20104;-69
2022/06/13 21:24:54;;;;;;;0.10;0.10;;;;;;;11.45;100.00;102201.13;10406365;28;20033;-69
2022/06/13 21:29:55;;;;;;;0.10;0.10;;;;;;;11.48;100.00;102200.88;10407905;28;20065;-69
2022/06/13 21:34:55;;;;;;;0.10;0.10;;;;;;;11.53;100.00;102199.50;10374648;28;20528;-70
2022/06/13 21:39:55;;;;;;;0.10;0.10;;;;;;;11.47;100.00;102194.69;10363202;28;20026;-69
2022/06/13 21:44:58;;;;;;;0.00;0.00;;;;;;;11.35;100.00;102203.75;10393746;28;20030;-69
2022/06/13 21:49:58;;;;;;;0.10;0.10;;;;;;;11.19;100.00;102195.34;10390845;28;20038;-69
2022/06/13 21:54:59;;;;;;;0.10;0.10;;;;;;;11.04;100.00;102200.16;10400983;28;20034;-69
2022/06/13 21:59:59;;;;;;;0.00;0.00;;;;;;;10.88;100.00;102192.59;10383012;28;20475;-69
2022/06/13 22:05:00;;;;;;;0.10;0.10;;;;;;;10.76;100.00;102186.47;10373299;28;20460;-69
2022/06/13 22:10:01;;;;;;;0.10;0.10;;;;;;;10.63;100.00;102188.44;10381986;28;20033;-69
2022/06/13 22:15:03;;;;;;;0.00;0.00;;;;;;;10.53;100.00;102192.81;10389577;22;20046;-74
2022/06/13 22:20:05;;;;;;;0.00;0.00;;;;;;;10.41;100.00;102192.00;10379671;28;20033;-73
2022/06/13 22:25:06;;;;;;;0.10;0.10;;;;;;;10.32;100.00;102188.28;10372405;28;20037;-74
2022/06/13 22:30:11;;;;;;;0.10;0.10;;;;;;;10.28;100.00;102189.50;10371601;28;20030;-74
2022/06/13 22:35:13;;;;;;;0.08;0.08;;;;;;;10.23;100.00;102193.47;10385899;28;20058;-74
2022/06/13 22:40:13;;;;;;;0.00;0.00;;;;;;;10.20;100.00;102178.59;10372049;28;20491;-73
2022/06/13 22:45:14;;;;;;;0.00;0.00;;;;;;;10.20;100.00;102195.41;10372691;28;20069;-74
2022/06/13 22:50:14;;;;;;;0.00;0.00;;;;;;;10.20;100.00;102189.22;10372669;28;20035;-74
2022/06/13 22:55:20;;;;;;;0.00;0.00;;;;;;;10.14;100.00;102184.41;10370199;28;20026;-73
2022/06/13 23:00:22;;;;;;;0.00;0.00;;;;;;;10.09;100.00;102192.75;10372297;28;20101;-74
2022/06/13 23:05:22;;;;;;;0.10;0.10;;;;;;;10.07;100.00;102193.88;10371641;28;20044;-74
2022/06/13 23:10:24;;;;;;;0.00;0.00;;;;;;;10.07;100.00;102189.38;10371921;28;20030;-73
2022/06/13 23:15:24;;;;;;;0.08;0.08;;;;;;;10.06;100.00;102203.66;10380706;28;20497;-74
2022/06/13 23:20:24;;;;;;;0.10;0.10;;;;;;;10.06;100.00;102197.47;10371562;28;20030;-73
2022/06/13 23:25:25;;;;;;;0.00;0.00;;;;;;;10.05;100.00;102188.66;10370576;28;20407;-74
2022/06/13 23:30:25;;;;;;;0.00;0.00;;;;;;;10.04;100.00;102197.63;10407912;28;20036;-73
2022/06/13 23:35:26;;;;;;;0.00;0.00;;;;;;;10.02;100.00;102199.53;10411060;28;20083;-74
2022/06/13 23:40:26;;;;;;;0.10;0.10;;;;;;;10.01;100.00;102197.03;10411755;28;20029;-74
2022/06/13 23:45:27;;;;;;;0.00;0.00;;;;;;;10.03;100.00;102200.38;10376522;28;20030;-74
2022/06/13 23:50:36;;;;;;;0.00;0.00;;;;;;;10.00;100.00;102198.81;10378949;28;20030;-73
2022/06/13 23:55:37;;;;;;;0.00;0.00;;;;;;;9.98;100.00;102196.28;10369556;28;20148;-74
